createdAt,value
2022-08-18T00:00:41.144Z,95.73
2022-08-18T00:01:41.144Z,95.73
2022-08-18T00:02:56.750Z,95.73
2022-08-18T00:03:56.937Z,95.53
2022-08-18T00:04:46.834Z,95.28
2022-08-18T00:05:42.066Z,95.18
2022-08-18T00:06:41.070Z,95.07
2022-08-18T00:07:41.033Z,94.87
2022-08-18T00:08:42.021Z,94.78
2022-08-18T00:09:41.017Z,94.78
2022-08-18T00:10:41.046Z,94.78
2022-08-18T00:11:42.174Z,94.67
2022-08-18T00:12:41.005Z,94.57
2022-08-18T00:13:40.962Z,94.52
2022-08-18T00:14:40.965Z,94.52
2022-08-18T00:15:41.572Z,94.62
2022-08-18T00:16:42.004Z,94.62
2022-08-18T00:17:40.975Z,94.62
2022-08-18T00:18:40.918Z,94.72
2022-08-18T00:19:47.094Z,94.72
2022-08-18T00:20:41.886Z,94.72
2022-08-18T00:21:40.896Z,94.82
2022-08-18T00:22:40.898Z,94.82
2022-08-18T00:23:40.866Z,94.92
2022-08-18T00:24:40.845Z,95.02
2022-08-18T00:25:41.866Z,95.02
2022-08-18T00:26:40.843Z,94.92
2022-08-18T00:27:40.845Z,94.92
2022-08-18T00:28:40.806Z,94.78
2022-08-18T00:29:40.838Z,94.72
2022-08-18T00:30:40.780Z,94.72
2022-08-18T00:31:40.780Z,94.42
2022-08-18T00:32:40.770Z,94.42
2022-08-18T00:33:40.739Z,94.42
2022-08-18T00:34:40.741Z,94.52
2022-08-18T00:35:40.757Z,94.42
2022-08-18T00:36:40.749Z,94.42
2022-08-18T00:37:40.700Z,94.32
2022-08-18T00:38:40.698Z,94.32
2022-08-18T00:39:47.598Z,94.42
2022-08-18T00:40:41.681Z,94.52
2022-08-18T00:41:40.651Z,94.72
2022-08-18T00:42:40.711Z,94.82
2022-08-18T00:43:40.647Z,95.02
2022-08-18T00:44:40.620Z,95.12
2022-08-18T00:45:40.618Z,95.12
2022-08-18T00:46:40.613Z,95.22
2022-08-18T00:47:42.507Z,95.22
2022-08-18T00:48:41.628Z,95.32
2022-08-18T00:49:41.568Z,95.53
2022-08-18T00:50:40.555Z,95.73
2022-08-18T00:51:40.562Z,95.73
2022-08-18T00:52:40.533Z,95.83
2022-08-18T00:53:40.547Z,95.83
2022-08-18T00:54:40.519Z,95.83
2022-08-18T00:55:41.624Z,95.73
2022-08-18T00:56:41.502Z,95.73
2022-08-18T00:57:40.466Z,95.62
2022-08-18T00:58:40.506Z,95.62
2022-08-18T00:59:40.469Z,95.73
2022-08-18T01:00:40.480Z,95.73
2022-08-18T01:01:40.449Z,95.73
2022-08-18T01:02:40.425Z,95.83
2022-08-18T01:03:40.416Z,95.83
2022-08-18T01:04:42.160Z,95.93
2022-08-18T01:05:40.398Z,95.93
2022-08-18T01:06:40.378Z,95.93
2022-08-18T01:07:40.359Z,95.93
2022-08-18T01:08:41.060Z,95.93
2022-08-18T01:09:40.341Z,96.03
2022-08-18T01:10:40.360Z,96.03
2022-08-18T01:11:40.331Z,96.13
2022-08-18T01:12:45.517Z,96.13
2022-08-18T01:13:41.303Z,96.23
2022-08-18T01:14:40.312Z,96.23
2022-08-18T01:15:40.273Z,96.23
2022-08-18T01:16:40.262Z,96.23
2022-08-18T01:17:41.272Z,96.43
2022-08-18T01:18:40.262Z,96.53
2022-08-18T01:19:40.254Z,96.73
2022-08-18T01:20:40.222Z,96.83
2022-08-18T01:21:40.225Z,96.93
2022-08-18T01:22:40.208Z,97.03
2022-08-18T01:23:40.205Z,97.03
2022-08-18T01:24:40.175Z,97.13
2022-08-18T01:25:40.194Z,97.13
2022-08-18T01:26:44.260Z,97.13
2022-08-18T01:27:41.166Z,97.24
2022-08-18T01:28:40.144Z,97.24
2022-08-18T01:29:43.361Z,97.24
2022-08-18T01:30:40.150Z,97.13
2022-08-18T01:31:40.087Z,97.13
2022-08-18T01:32:41.128Z,97.03
2022-08-18T01:33:40.076Z,97.03
2022-08-18T01:34:40.086Z,96.93
2022-08-18T01:35:41.949Z,96.83
2022-08-18T01:36:40.061Z,96.83
2022-08-18T01:37:40.046Z,96.93
2022-08-18T01:38:40.038Z,96.93
2022-08-18T01:41:22.244Z,96.89
2022-08-18T01:41:23.804Z,96.89
2022-08-18T01:41:41.022Z,96.78
2022-08-18T01:42:39.998Z,96.78
2022-08-18T01:43:39.960Z,96.78
2022-08-18T01:44:40.002Z,96.78
2022-08-18T01:45:39.938Z,96.78
2022-08-18T01:46:40.878Z,96.78
2022-08-18T01:47:47.762Z,96.78
2022-08-18T01:48:40.912Z,96.69
2022-08-18T01:49:39.897Z,96.69
2022-08-18T01:50:39.893Z,96.59
2022-08-18T01:51:41.080Z,96.59
2022-08-18T01:52:39.905Z,96.59
2022-08-18T01:53:39.833Z,96.48
2022-08-18T01:54:39.844Z,96.48
2022-08-18T01:55:39.839Z,96.59
2022-08-18T01:56:39.819Z,96.59
2022-08-18T01:57:39.805Z,96.59
2022-08-18T01:58:39.843Z,96.48
2022-08-18T01:59:39.787Z,96.39
2022-08-18T02:00:39.780Z,96.39
2022-08-18T02:01:46.627Z,96.19
2022-08-18T02:02:40.766Z,96.19
2022-08-18T02:03:39.737Z,96.08
2022-08-18T02:04:40.713Z,96.08
2022-08-18T02:05:39.707Z,95.98
2022-08-18T02:06:39.698Z,95.98
2022-08-18T02:07:40.695Z,95.88
2022-08-18T02:08:39.680Z,95.88
2022-08-18T02:09:39.715Z,95.88
2022-08-18T02:10:39.665Z,95.88
2022-08-18T02:11:39.640Z,95.88
2022-08-18T02:12:39.651Z,95.88
2022-08-18T02:13:39.628Z,95.88
2022-08-18T02:14:39.619Z,95.88
2022-08-18T02:15:41.943Z,95.88
2022-08-18T02:16:39.599Z,95.88
2022-08-18T02:17:39.585Z,95.88
2022-08-18T02:18:47.324Z,95.98
2022-08-18T02:19:40.556Z,95.98
2022-08-18T02:20:40.645Z,95.98
2022-08-18T02:21:39.544Z,95.88
2022-08-18T02:22:39.525Z,95.88
2022-08-18T02:23:39.515Z,95.88
2022-08-18T02:24:39.524Z,95.78
2022-08-18T02:25:39.541Z,95.88
2022-08-18T02:26:39.488Z,95.88
2022-08-18T02:27:39.487Z,95.93
2022-08-18T02:28:39.496Z,96.03
2022-08-18T02:29:39.459Z,96.03
2022-08-18T02:30:39.446Z,96.03
2022-08-18T02:31:39.478Z,96.13
2022-08-18T02:32:40.132Z,96.13
2022-08-18T02:33:39.406Z,96.23
2022-08-18T02:34:40.404Z,96.23
2022-08-18T02:35:39.414Z,96.23
2022-08-18T02:36:39.398Z,96.33
2022-08-18T02:37:39.382Z,96.43
2022-08-18T02:38:39.348Z,96.58
2022-08-18T02:39:39.353Z,96.68
2022-08-18T02:40:39.329Z,96.78
2022-08-18T02:41:39.317Z,96.88
2022-08-18T02:42:39.338Z,96.98
2022-08-18T02:43:39.317Z,97.08
2022-08-18T02:44:39.306Z,97.18
2022-08-18T02:45:39.320Z,97.28
2022-08-18T02:46:39.268Z,97.18
2022-08-18T02:47:39.251Z,97.18
2022-08-18T02:48:39.273Z,97.08
2022-08-18T02:49:39.273Z,97.08
2022-08-18T02:50:39.211Z,96.98
2022-08-18T02:51:39.215Z,96.98
2022-08-18T02:52:40.523Z,96.98
2022-08-18T02:53:39.205Z,96.98
2022-08-18T02:54:39.187Z,96.98
2022-08-18T02:55:39.203Z,96.98
2022-08-18T02:56:41.000Z,96.88
2022-08-18T02:57:39.162Z,96.88
2022-08-18T02:58:39.134Z,96.88
2022-08-18T02:59:39.284Z,96.88
2022-08-18T03:00:39.109Z,96.88
2022-08-18T03:01:39.176Z,96.78
2022-08-18T03:02:39.076Z,96.78
2022-08-18T03:03:39.092Z,96.78
2022-08-18T03:04:39.089Z,96.78
2022-08-18T03:05:39.057Z,96.88
2022-08-18T03:06:39.035Z,96.88
2022-08-18T03:07:39.037Z,96.88
2022-08-18T03:08:39.022Z,96.88
2022-08-18T03:09:39.005Z,96.88
2022-08-18T03:10:39.016Z,96.98
2022-08-18T03:11:38.980Z,96.98
2022-08-18T03:12:38.980Z,97.08
2022-08-18T03:13:38.972Z,97.18
2022-08-18T03:14:38.992Z,97.18
2022-08-18T03:15:38.991Z,97.28
2022-08-18T03:16:38.932Z,97.28
2022-08-18T03:17:39.929Z,97.38
2022-08-18T03:18:38.912Z,97.38
2022-08-18T03:19:38.931Z,97.38
2022-08-18T03:20:38.913Z,97.38
2022-08-18T03:21:38.896Z,97.38
2022-08-18T03:22:38.894Z,97.38
2022-08-18T03:23:38.882Z,97.49
2022-08-18T03:24:38.865Z,97.38
2022-08-18T03:25:38.833Z,97.38
2022-08-18T03:26:38.881Z,97.38
2022-08-18T03:27:38.811Z,97.49
2022-08-18T03:28:38.813Z,97.49
2022-08-18T03:29:39.758Z,97.49
2022-08-18T03:30:38.801Z,97.49
2022-08-18T03:31:38.780Z,97.49
2022-08-18T03:32:38.793Z,97.49
2022-08-18T03:33:39.755Z,97.49
2022-08-18T03:34:38.741Z,97.38
2022-08-18T03:35:38.719Z,97.38
2022-08-18T03:36:38.731Z,97.28
2022-08-18T03:37:38.698Z,97.28
2022-08-18T03:38:38.721Z,97.28
2022-08-18T03:39:38.758Z,97.28
2022-08-18T03:40:38.666Z,97.28
2022-08-18T03:41:43.725Z,97.28
2022-08-18T03:42:39.649Z,97.28
2022-08-18T03:43:50.801Z,97.28
2022-08-18T03:44:39.639Z,97.28
2022-08-18T03:45:38.627Z,97.28
2022-08-18T03:46:38.651Z,97.24
2022-08-18T03:47:38.602Z,97.24
2022-08-18T03:48:38.585Z,97.24
2022-08-18T03:49:38.575Z,97.24
2022-08-18T03:50:38.551Z,97.24
2022-08-18T03:51:38.561Z,97.13
2022-08-18T03:52:41.419Z,97.13
2022-08-18T03:53:38.586Z,97.13
2022-08-18T03:54:38.532Z,97.03
2022-08-18T03:55:38.516Z,97.03
2022-08-18T03:56:38.506Z,97.03
2022-08-18T03:57:39.260Z,96.93
2022-08-18T03:58:38.478Z,96.93
2022-08-18T03:59:38.522Z,96.83
2022-08-18T04:00:38.464Z,96.83
2022-08-18T04:01:38.534Z,96.73
2022-08-18T04:02:38.462Z,96.73
2022-08-18T04:03:38.477Z,96.73
2022-08-18T04:04:38.439Z,96.63
2022-08-18T04:05:38.425Z,96.63
2022-08-18T04:06:38.398Z,96.63
2022-08-18T04:07:38.428Z,96.63
2022-08-18T04:08:38.387Z,96.48
2022-08-18T04:09:38.386Z,96.48
2022-08-18T04:10:38.346Z,96.48
2022-08-18T04:11:38.336Z,96.48
2022-08-18T04:12:38.341Z,96.39
2022-08-18T04:13:38.338Z,96.39
2022-08-18T04:14:38.308Z,96.19
2022-08-18T04:15:38.320Z,96.08
2022-08-18T04:16:38.283Z,95.98
2022-08-18T04:18:03.169Z,95.88
2022-08-18T04:18:39.260Z,95.98
2022-08-18T04:19:38.386Z,95.98
2022-08-18T04:20:38.224Z,95.98
2022-08-18T04:21:39.243Z,96.08
2022-08-18T04:22:38.201Z,96.08
2022-08-18T04:23:43.392Z,96.08
2022-08-18T04:24:39.231Z,96.08
2022-08-18T04:25:38.192Z,95.98
2022-08-18T04:26:38.171Z,95.88
2022-08-18T04:27:38.168Z,95.88
2022-08-18T04:28:38.145Z,95.78
2022-08-18T04:29:38.144Z,95.78
2022-08-18T04:30:38.147Z,95.78
2022-08-18T04:31:38.113Z,95.68
2022-08-18T04:32:38.094Z,95.58
2022-08-18T04:33:38.086Z,95.48
2022-08-18T04:34:38.104Z,95.58
2022-08-18T04:35:38.124Z,95.58
2022-08-18T04:36:38.086Z,95.68
2022-08-18T04:37:39.661Z,95.68
2022-08-18T04:38:38.031Z,95.68
2022-08-18T04:39:38.087Z,95.68
2022-08-18T04:40:38.027Z,95.68
2022-08-18T04:41:37.996Z,95.73
2022-08-18T04:42:43.276Z,95.83
2022-08-18T04:43:38.977Z,95.83
2022-08-18T04:44:38.009Z,95.93
2022-08-18T04:45:37.996Z,95.93
2022-08-18T04:46:37.956Z,96.03
2022-08-18T04:47:37.962Z,96.03
2022-08-18T04:48:37.915Z,96.13
2022-08-18T04:49:37.908Z,96.13
2022-08-18T04:50:37.901Z,96.13
2022-08-18T04:52:26.665Z,96.08
2022-08-18T04:52:41.780Z,96.08
2022-08-18T04:53:37.870Z,96.08
2022-08-18T04:54:37.890Z,96.19
2022-08-18T04:55:37.871Z,96.08
2022-08-18T04:56:37.829Z,96.08
2022-08-18T04:57:37.847Z,96.08
2022-08-18T04:58:37.815Z,96.08
2022-08-18T04:59:37.822Z,95.98
2022-08-18T05:00:37.794Z,95.98
2022-08-18T05:01:37.822Z,95.98
2022-08-18T05:02:37.764Z,95.88
2022-08-18T05:03:37.764Z,95.88
2022-08-18T05:04:38.774Z,95.98
2022-08-18T05:05:37.784Z,95.88
2022-08-18T05:06:37.729Z,95.84
2022-08-18T05:07:37.699Z,95.73
2022-08-18T05:08:37.695Z,95.73
2022-08-18T05:09:41.316Z,95.53
2022-08-18T05:10:37.695Z,95.43
2022-08-18T05:11:37.693Z,95.23
2022-08-18T05:12:37.674Z,95.23
2022-08-18T05:13:37.679Z,95.13
2022-08-18T05:14:37.622Z,95.13
2022-08-18T05:15:59.477Z,95.13
2022-08-18T05:16:48.221Z,95.03
2022-08-18T05:17:38.616Z,94.89
2022-08-18T05:18:37.591Z,94.79
2022-08-18T05:19:42.180Z,94.79
2022-08-18T05:20:38.569Z,94.68
2022-08-18T05:21:37.590Z,94.59
2022-08-18T05:22:37.557Z,94.28
2022-08-18T05:23:37.531Z,94.18
2022-08-18T05:24:37.886Z,94.18
2022-08-18T05:25:37.525Z,93.98
2022-08-18T05:26:37.512Z,93.98
2022-08-18T05:27:37.511Z,93.88
2022-08-18T05:28:37.480Z,93.98
2022-08-18T05:29:58.492Z,93.98
2022-08-18T05:30:37.461Z,93.98
2022-08-18T05:31:37.449Z,93.88
2022-08-18T05:32:48.073Z,93.88
2022-08-18T05:33:38.460Z,93.78
2022-08-18T05:34:37.761Z,93.78
2022-08-18T05:35:37.414Z,93.78
2022-08-18T05:36:37.385Z,93.78
2022-08-18T05:37:37.383Z,93.78
2022-08-18T05:38:37.464Z,93.78
2022-08-18T05:39:37.403Z,93.78
2022-08-18T05:40:37.347Z,93.88
2022-08-18T05:41:37.370Z,93.78
2022-08-18T05:42:37.328Z,93.78
2022-08-18T05:43:37.311Z,93.88
2022-08-18T05:44:38.323Z,93.88
2022-08-18T05:45:37.291Z,93.98
2022-08-18T05:46:37.288Z,94.08
2022-08-18T05:47:37.287Z,93.98
2022-08-18T05:48:42.699Z,94.08
2022-08-18T05:49:38.260Z,93.98
2022-08-18T05:50:37.263Z,94.08
2022-08-18T05:51:37.230Z,94.18
2022-08-18T05:52:37.206Z,94.18
2022-08-18T05:53:37.202Z,94.08
2022-08-18T05:54:37.212Z,94.18
2022-08-18T05:55:37.220Z,94.08
2022-08-18T05:56:37.897Z,94.18
2022-08-18T05:57:37.151Z,94.18
2022-08-18T05:58:37.183Z,94.18
2022-08-18T05:59:37.132Z,94.18
2022-08-18T06:00:37.130Z,94.18
2022-08-18T06:01:37.126Z,94.18
2022-08-18T06:02:37.160Z,94.18
2022-08-18T06:03:45.171Z,94.18
2022-08-18T06:04:38.095Z,94.08
2022-08-18T06:05:37.085Z,94.08
2022-08-18T06:06:37.058Z,94.08
2022-08-18T06:07:37.048Z,94.08
2022-08-18T06:08:37.045Z,94.18
2022-08-18T06:09:37.067Z,94.18
2022-08-18T06:10:37.022Z,94.18
2022-08-18T06:11:37.014Z,94.28
2022-08-18T06:12:37.854Z,94.28
2022-08-18T06:13:36.997Z,94.28
2022-08-18T06:14:36.996Z,94.28
2022-08-18T06:15:39.612Z,94.28
2022-08-18T06:16:36.958Z,94.28
2022-08-18T06:17:36.973Z,94.28
2022-08-18T06:18:36.928Z,94.28
2022-08-18T06:19:36.942Z,94.28
2022-08-18T06:20:36.933Z,94.18
2022-08-18T06:21:39.147Z,94.28
2022-08-18T06:22:36.902Z,94.24
2022-08-18T06:23:37.913Z,94.28
2022-08-18T06:24:36.924Z,94.28
2022-08-18T06:25:36.881Z,94.13
2022-08-18T06:26:36.842Z,94.18
2022-08-18T06:27:36.907Z,94.18
2022-08-18T06:28:36.822Z,94.28
2022-08-18T06:29:36.822Z,94.28
2022-08-18T06:30:36.793Z,94.24
2022-08-18T06:31:36.835Z,94.13
2022-08-18T06:32:36.821Z,94.13
2022-08-18T06:33:36.785Z,94.13
2022-08-18T06:34:36.773Z,94.24
2022-08-18T06:35:36.764Z,94.24
2022-08-18T06:36:36.765Z,94.24
2022-08-18T06:37:36.715Z,94.34
2022-08-18T06:38:36.760Z,94.34
2022-08-18T06:39:36.805Z,94.24
2022-08-18T06:40:36.698Z,94.24
2022-08-18T06:41:41.888Z,94.24
2022-08-18T06:42:40.546Z,94.24
2022-08-18T06:43:36.647Z,94.24
2022-08-18T06:44:36.669Z,94.24
2022-08-18T06:45:39.883Z,94.13
2022-08-18T06:46:36.643Z,94.13
2022-08-18T06:47:36.649Z,94.13
2022-08-18T06:48:36.610Z,94.13
2022-08-18T06:49:36.602Z,93.93
2022-08-18T06:50:36.599Z,93.93
2022-08-18T06:51:40.691Z,93.93
2022-08-18T06:52:36.581Z,93.93
2022-08-18T06:53:36.571Z,94.04
2022-08-18T06:54:36.551Z,94.04
2022-08-18T06:55:36.510Z,93.93
2022-08-18T06:56:36.544Z,93.84
2022-08-18T06:57:36.503Z,93.74
2022-08-18T06:58:36.510Z,93.74
2022-08-18T06:59:36.484Z,93.84
2022-08-18T07:00:36.615Z,93.84
2022-08-18T07:01:36.545Z,93.74
2022-08-18T07:02:36.453Z,93.74
2022-08-18T07:03:36.446Z,93.63
2022-08-18T07:04:36.424Z,93.63
2022-08-18T07:05:36.424Z,93.74
2022-08-18T07:06:36.464Z,93.74
2022-08-18T07:07:40.287Z,93.69
2022-08-18T07:08:36.384Z,93.79
2022-08-18T07:09:36.381Z,93.89
2022-08-18T07:10:36.370Z,93.99
2022-08-18T07:11:36.396Z,93.89
2022-08-18T07:12:36.347Z,93.69
2022-08-18T07:13:36.332Z,93.59
2022-08-18T07:14:36.430Z,93.49
2022-08-18T07:15:36.327Z,93.49
2022-08-18T07:17:43.604Z,93.49
2022-08-18T07:18:37.307Z,93.59
2022-08-18T07:19:36.268Z,93.59
2022-08-18T07:20:36.252Z,93.59
2022-08-18T07:21:36.275Z,93.39
2022-08-18T07:22:38.996Z,93.29
2022-08-18T07:23:36.225Z,93.19
2022-08-18T07:24:36.253Z,93.19
2022-08-18T07:25:36.262Z,93.19
2022-08-18T07:26:36.247Z,93.09
2022-08-18T07:27:36.324Z,92.89
2022-08-18T07:28:36.233Z,92.74
2022-08-18T07:29:36.143Z,92.65
2022-08-18T07:30:36.140Z,92.54
2022-08-18T07:31:36.130Z,92.54
2022-08-18T07:32:36.105Z,92.44
2022-08-18T07:33:36.208Z,92.34
2022-08-18T07:34:36.183Z,92.14
2022-08-18T07:35:36.209Z,92.00
2022-08-18T07:36:36.077Z,91.80
2022-08-18T07:37:36.105Z,91.50
2022-08-18T07:38:43.150Z,91.50
2022-08-18T07:39:37.190Z,91.30
2022-08-18T07:40:36.123Z,91.09
2022-08-18T07:41:36.087Z,90.89
2022-08-18T07:42:53.898Z,90.99
2022-08-18T07:43:37.026Z,90.99
2022-08-18T07:44:35.980Z,90.99
2022-08-18T07:45:35.989Z,90.99
2022-08-18T07:46:36.018Z,90.75
2022-08-18T07:47:35.940Z,90.45
2022-08-18T07:48:39.665Z,90.15
2022-08-18T07:49:36.118Z,90.05
2022-08-18T07:50:58.625Z,89.95
2022-08-18T07:51:37.569Z,89.75
2022-08-18T07:52:46.958Z,89.65
2022-08-18T07:53:36.933Z,89.65
2022-08-18T07:54:51.456Z,89.65
2022-08-18T07:55:36.917Z,89.65
2022-08-18T07:56:35.936Z,89.54
2022-08-18T07:57:42.110Z,89.34
2022-08-18T07:58:36.872Z,89.34
2022-08-18T07:59:35.848Z,89.14
2022-08-18T08:00:57.735Z,88.90
2022-08-18T08:01:36.881Z,88.90
2022-08-18T08:02:35.813Z,88.70
2022-08-18T08:03:35.780Z,88.70
2022-08-18T08:04:35.796Z,88.50
2022-08-18T08:05:35.744Z,88.30
2022-08-18T08:06:35.762Z,87.50
2022-08-18T08:07:35.734Z,87.40
2022-08-18T08:08:35.754Z,87.10
2022-08-18T08:09:35.790Z,86.69
2022-08-18T08:10:35.719Z,86.40
2022-08-18T08:11:35.696Z,86.10
2022-08-18T08:12:35.677Z,86.30
2022-08-18T08:13:54.112Z,86.50
2022-08-18T08:14:36.689Z,86.50
2022-08-18T08:15:35.647Z,86.35
2022-08-18T08:16:35.628Z,86.25
2022-08-18T08:17:35.623Z,86.35
2022-08-18T08:18:35.664Z,86.05
2022-08-18T08:19:58.901Z,85.75
2022-08-18T08:20:36.604Z,85.35
2022-08-18T08:21:35.566Z,85.46
2022-08-18T08:22:35.601Z,85.66
2022-08-18T08:23:35.569Z,85.61
2022-08-18T08:24:35.538Z,85.31
2022-08-18T08:25:46.432Z,85.11
2022-08-18T08:26:36.511Z,85.01
2022-08-18T08:27:35.512Z,85.11
2022-08-18T08:28:35.534Z,85.07
2022-08-18T08:29:35.480Z,84.87
2022-08-18T08:30:35.496Z,84.77
2022-08-18T08:31:37.432Z,84.07
2022-08-18T08:32:35.454Z,83.97
2022-08-18T08:33:35.440Z,83.87
2022-08-18T08:34:35.465Z,83.87
2022-08-18T08:35:49.906Z,83.67
2022-08-18T08:36:36.413Z,83.77
2022-08-18T08:37:35.415Z,83.53
2022-08-18T08:38:42.743Z,83.23
2022-08-18T08:39:36.443Z,83.13
2022-08-18T08:40:35.368Z,82.73
2022-08-18T08:41:35.368Z,82.97
2022-08-18T08:42:38.574Z,82.97
2022-08-18T08:43:36.342Z,83.07
2022-08-18T08:44:35.327Z,83.07
2022-08-18T08:45:35.310Z,83.27
2022-08-18T08:46:35.299Z,83.37
2022-08-18T08:47:35.310Z,83.47
2022-08-18T08:48:35.325Z,83.27
2022-08-18T08:49:35.299Z,83.37
2022-08-18T08:50:35.266Z,83.37
2022-08-18T08:51:35.240Z,83.17
2022-08-18T08:52:35.250Z,83.27
2022-08-18T08:53:35.222Z,83.17
2022-08-18T08:54:35.252Z,82.97
2022-08-18T08:55:35.206Z,82.57
2022-08-18T08:56:35.215Z,82.47
2022-08-18T08:57:35.176Z,82.57
2022-08-18T08:58:35.199Z,82.37
2022-08-18T08:59:35.207Z,82.47
2022-08-18T09:00:35.179Z,82.47
2022-08-18T09:01:35.199Z,82.47
2022-08-18T09:02:47.777Z,82.33
2022-08-18T09:03:36.107Z,82.13
2022-08-18T09:04:35.108Z,82.23
2022-08-18T09:05:35.191Z,82.23
2022-08-18T09:06:35.119Z,82.23
2022-08-18T09:07:38.059Z,82.09
2022-08-18T09:08:35.067Z,81.89
2022-08-18T09:09:35.082Z,81.49
2022-08-18T09:10:35.081Z,81.59
2022-08-18T09:11:35.039Z,80.59
2022-08-18T09:12:35.026Z,80.19
2022-08-18T09:13:35.014Z,80.09
2022-08-18T09:14:35.035Z,80.29
2022-08-18T09:15:34.980Z,80.39
2022-08-18T09:16:34.981Z,80.29
2022-08-18T09:17:34.970Z,80.39
2022-08-18T09:18:34.978Z,80.29
2022-08-18T09:19:34.964Z,79.75
2022-08-18T09:20:34.962Z,79.75
2022-08-18T09:21:34.912Z,79.46
2022-08-18T09:22:34.917Z,79.05
2022-08-18T09:23:34.897Z,78.96
2022-08-18T09:24:34.892Z,78.96
2022-08-18T09:25:34.902Z,79.25
2022-08-18T09:26:38.935Z,79.46
2022-08-18T09:27:53.756Z,79.35
2022-08-18T09:28:35.885Z,78.85
2022-08-18T09:29:34.847Z,78.66
2022-08-18T09:30:34.833Z,78.22
2022-08-18T09:31:34.830Z,77.51
2022-08-18T09:32:34.840Z,77.42
2022-08-18T09:33:34.836Z,77.42
2022-08-18T09:34:34.805Z,77.51
2022-08-18T09:35:34.802Z,77.22
2022-08-18T09:36:34.760Z,77.12
2022-08-18T09:37:34.754Z,76.32
2022-08-18T09:38:34.729Z,76.52
2022-08-18T09:39:34.782Z,76.72
2022-08-18T09:41:01.189Z,76.42
2022-08-18T09:41:35.717Z,76.52
2022-08-18T09:42:49.836Z,76.22
2022-08-18T09:43:36.731Z,76.22
2022-08-18T09:44:34.685Z,76.32
2022-08-18T09:45:34.704Z,76.22
2022-08-18T09:46:34.748Z,76.52
2022-08-18T09:47:34.951Z,76.52
2022-08-18T09:48:34.621Z,76.82
2022-08-18T09:49:37.998Z,76.92
2022-08-18T09:50:34.601Z,77.02
2022-08-18T09:51:34.592Z,77.12
2022-08-18T09:52:37.297Z,76.82
2022-08-18T09:53:34.580Z,76.62
2022-08-18T09:54:34.557Z,76.72
2022-08-18T09:55:34.584Z,76.62
2022-08-18T09:56:34.563Z,76.42
2022-08-18T09:57:42.455Z,76.62
2022-08-18T09:58:35.515Z,76.22
2022-08-18T09:59:35.137Z,76.32
2022-08-18T10:00:34.497Z,76.32
2022-08-18T10:01:34.579Z,76.32
2022-08-18T10:02:36.807Z,76.42
2022-08-18T10:03:34.479Z,75.78
2022-08-18T10:04:34.447Z,75.98
2022-08-18T10:05:34.453Z,76.08
2022-08-18T10:06:34.420Z,75.98
2022-08-18T10:07:41.737Z,75.28
2022-08-18T10:08:35.418Z,74.58
2022-08-18T10:09:36.849Z,74.79
2022-08-18T10:10:59.153Z,74.68
2022-08-18T10:11:35.366Z,74.68
2022-08-18T10:12:34.360Z,74.98
2022-08-18T10:13:37.219Z,74.98
2022-08-18T10:14:34.369Z,74.88
2022-08-18T10:15:34.426Z,74.68
2022-08-18T10:16:57.704Z,74.15
2022-08-18T10:17:35.302Z,73.85
2022-08-18T10:18:34.467Z,73.45
2022-08-18T10:19:39.945Z,73.25
2022-08-18T10:20:35.273Z,73.65
2022-08-18T10:21:34.307Z,73.85
2022-08-18T10:23:38.382Z,74.32
2022-08-18T10:24:36.946Z,74.11
2022-08-18T10:25:34.343Z,73.22
2022-08-18T10:26:34.246Z,73.28
2022-08-18T10:27:34.195Z,73.38
2022-08-18T10:28:34.188Z,73.18
2022-08-18T10:29:34.228Z,72.95
2022-08-18T10:30:36.430Z,71.85
2022-08-18T10:31:35.248Z,72.05
2022-08-18T10:32:34.228Z,71.75
2022-08-18T10:33:34.220Z,71.85
2022-08-18T10:34:34.162Z,71.65
2022-08-18T10:35:34.100Z,71.15
2022-08-18T10:36:34.110Z,71.15
2022-08-18T10:37:34.093Z,71.15
2022-08-18T10:38:34.070Z,71.15
2022-08-18T10:39:34.094Z,71.15
2022-08-18T10:40:35.056Z,71.05
2022-08-18T10:41:34.109Z,70.95
2022-08-18T10:42:34.070Z,71.25
2022-08-18T10:43:45.949Z,71.25
2022-08-18T10:44:35.004Z,71.25
2022-08-18T10:45:34.005Z,71.15
2022-08-18T10:46:36.982Z,71.05
2022-08-18T10:47:35.002Z,70.56
2022-08-18T10:48:33.964Z,70.56
2022-08-18T10:49:33.977Z,70.56
2022-08-18T10:50:33.932Z,70.75
2022-08-18T10:51:58.117Z,70.95
2022-08-18T10:52:35.639Z,71.25
2022-08-18T10:53:40.293Z,70.95
2022-08-18T10:54:34.941Z,70.75
2022-08-18T10:56:34.889Z,69.76
2022-08-18T10:57:33.900Z,70.16
2022-08-18T10:58:33.847Z,70.16
2022-08-18T10:59:47.713Z,70.19
2022-08-18T11:00:34.860Z,70.89
2022-08-18T11:01:35.574Z,70.99
2022-08-18T11:02:33.805Z,70.99
2022-08-18T11:03:51.635Z,71.19
2022-08-18T11:04:37.085Z,71.29
2022-08-18T11:05:33.838Z,71.78
2022-08-18T11:06:33.797Z,71.78
2022-08-18T11:07:33.976Z,71.98
2022-08-18T11:08:36.919Z,71.78
2022-08-18T11:09:33.749Z,71.75
2022-08-18T11:10:50.553Z,71.25
2022-08-18T11:11:39.959Z,71.35
2022-08-18T11:12:34.726Z,71.55
2022-08-18T11:13:33.695Z,71.25
2022-08-18T11:14:34.116Z,71.05
2022-08-18T11:15:38.575Z,71.25
2022-08-18T11:16:34.654Z,71.35
2022-08-18T11:17:33.646Z,70.56
2022-08-18T11:18:38.985Z,70.45
2022-08-18T11:19:34.642Z,70.45
2022-08-18T11:20:34.621Z,70.99
2022-08-18T11:21:33.597Z,71.29
2022-08-18T11:22:34.410Z,71.19
2022-08-18T11:23:33.577Z,71.19
2022-08-18T11:24:33.607Z,71.78
2022-08-18T11:25:33.589Z,71.48
2022-08-18T11:26:33.548Z,71.69
2022-08-18T11:27:33.536Z,71.69
2022-08-18T11:28:34.617Z,71.75
2022-08-18T11:29:33.537Z,71.95
2022-08-18T11:30:35.224Z,71.65
2022-08-18T11:31:33.517Z,71.12
2022-08-18T11:32:34.775Z,70.42
2022-08-18T11:33:33.470Z,70.03
2022-08-18T11:34:33.473Z,70.22
2022-08-18T11:35:33.485Z,70.19
2022-08-18T11:36:33.447Z,69.79
2022-08-18T11:37:51.487Z,69.29
2022-08-18T11:38:34.455Z,69.46
2022-08-18T11:39:38.167Z,69.36
2022-08-18T11:41:08.822Z,68.37
2022-08-18T11:41:47.927Z,68.37
2022-08-18T11:42:34.379Z,68.23
2022-08-18T11:43:40.981Z,68.43
2022-08-18T11:44:34.414Z,67.44
2022-08-18T11:45:33.345Z,67.33
2022-08-18T11:46:33.336Z,67.83
2022-08-18T11:47:33.325Z,68.13
2022-08-18T11:48:37.775Z,68.33
2022-08-18T11:49:34.313Z,67.54
2022-08-18T11:50:33.331Z,67.93
2022-08-18T11:51:33.298Z,67.70
2022-08-18T11:53:34.287Z,67.40
2022-08-18T11:54:33.274Z,67.18
2022-08-18T11:55:33.239Z,67.18
2022-08-18T11:56:37.818Z,66.78
2022-08-18T11:57:34.255Z,66.18
2022-08-18T11:58:33.429Z,66.15
2022-08-18T11:59:52.811Z,66.05
2022-08-18T12:00:34.187Z,65.65
2022-08-18T12:01:40.892Z,65.55
2022-08-18T12:02:34.140Z,65.35
2022-08-18T12:03:33.150Z,65.35
2022-08-18T12:04:33.165Z,65.16
2022-08-18T12:05:33.890Z,64.66
2022-08-18T12:06:34.125Z,65.16
2022-08-18T12:07:33.118Z,65.85
2022-08-18T12:08:56.139Z,65.85
2022-08-18T12:10:15.922Z,65.65
2022-08-18T12:10:34.062Z,65.35
2022-08-18T12:11:33.055Z,65.06
2022-08-18T12:12:33.033Z,64.76
2022-08-18T12:13:33.065Z,65.02
2022-08-18T12:14:35.271Z,65.02
2022-08-18T12:15:44.071Z,64.23
2022-08-18T12:16:34.032Z,63.83
2022-08-18T12:17:33.001Z,63.54
2022-08-18T12:18:32.996Z,63.80
2022-08-18T12:19:34.470Z,62.21
2022-08-18T12:20:32.971Z,62.45
2022-08-18T12:21:32.990Z,61.85
2022-08-18T12:22:32.999Z,62.37
2022-08-18T12:24:34.625Z,62.77
2022-08-18T12:25:33.925Z,63.37
2022-08-18T12:26:43.312Z,63.07
2022-08-18T12:27:33.910Z,62.94
2022-08-18T12:28:32.891Z,62.84
2022-08-18T12:29:33.260Z,62.45
2022-08-18T12:30:33.855Z,62.91
2022-08-18T12:31:42.557Z,63.21
2022-08-18T12:32:50.231Z,63.31
2022-08-18T12:33:34.404Z,62.78
2022-08-18T12:34:33.829Z,62.18
2022-08-18T12:35:32.804Z,62.48
2022-08-18T12:36:32.789Z,62.26
2022-08-18T12:37:58.354Z,61.66
2022-08-18T12:38:36.541Z,61.07
2022-08-18T12:39:32.809Z,61.46
2022-08-18T12:40:32.952Z,61.56
2022-08-18T12:41:32.738Z,61.86
2022-08-18T12:42:32.774Z,61.23
2022-08-18T12:43:32.736Z,61.13
2022-08-18T12:44:32.698Z,60.54
2022-08-18T12:45:32.711Z,60.41
2022-08-18T12:46:32.681Z,59.99
2022-08-18T12:47:32.689Z,59.99
2022-08-18T12:48:33.681Z,59.76
2022-08-18T12:49:32.650Z,58.37
2022-08-18T12:50:36.279Z,58.87
2022-08-18T12:51:33.623Z,59.14
2022-08-18T12:52:32.629Z,58.05
2022-08-18T12:53:38.304Z,57.85
2022-08-18T12:54:33.625Z,57.35
2022-08-18T12:55:32.610Z,57.95
2022-08-18T12:56:32.584Z,58.05
2022-08-18T12:58:36.343Z,58.64